Time;durP1;ratioP1;P1;durP2;ratioP2;P2;SDS_P1;SDS_P2;PMS_P1;PMS_P2;Temp;Humidity;BMP_temperature;BMP_pressure;BME280_temperature;BME280_humidity;BME280_pressure;Samples;Min_cycle;Max_cycle;Signal;HPM_P1;HPM_P2
2021/07/20 00:00:44;;;;;;;;;;;22.50;62.60;;;;;;5049304;28;20016;-77
2021/07/20 00:03:11;;;;;;;;;;;22.50;61.40;;;;;;5053415;28;20390;-77
2021/07/20 00:05:42;;;;;;;;;;;22.50;61.70;;;;;;5040620;28;19925;-76
2021/07/20 00:08:10;;;;;;;;;;;22.50;62.80;;;;;;5049920;28;20006;-76
2021/07/20 00:10:43;;;;;;;;;;;22.50;63.20;;;;;;5046123;28;19956;-77
2021/07/20 00:13:10;;;;;;;;;;;22.40;61.00;;;;;;5042726;28;19956;-77
2021/07/20 00:15:37;;;;;;;;;;;22.50;62.10;;;;;;5048340;28;19991;-77
2021/07/20 00:18:06;;;;;;;;;;;22.50;62.20;;;;;;5038745;28;19925;-76
2021/07/20 00:20:32;;;;;;;;;;;22.40;60.90;;;;;;5042621;28;20019;-76
2021/07/20 00:22:59;;;;;;;;;;;22.40;61.20;;;;;;5036350;28;20315;-76
2021/07/20 00:25:26;;;;;;;;;;;22.40;61.80;;;;;;5046757;28;19970;-76
2021/07/20 00:27:53;;;;;;;;;;;22.40;61.90;;;;;;5040950;28;20383;-76
2021/07/20 00:30:20;;;;;;;;;;;22.50;62.40;;;;;;5037511;28;19994;-77
2021/07/20 00:32:46;;;;;;;;;;;22.40;61.90;;;;;;5041564;28;20008;-77
2021/07/20 00:35:13;;;;;;;;;;;22.40;62.80;;;;;;5041075;28;20039;-77
2021/07/20 00:37:41;;;;;;;;;;;22.20;61.70;;;;;;5050318;28;19925;-77
2021/07/20 00:40:10;;;;;;;;;;;22.20;61.80;;;;;;5042765;28;19960;-77
2021/07/20 00:42:36;;;;;;;;;;;22.30;62.30;;;;;;5038301;28;19925;-76
2021/07/20 00:45:04;;;;;;;;;;;22.30;62.30;;;;;;5046823;28;19954;-76
2021/07/20 00:47:31;;;;;;;;;;;22.40;64.20;;;;;;5041007;28;20326;-76
2021/07/20 00:49:57;;;;;;;;;;;22.40;62.70;;;;;;5043719;28;20342;-77
2021/07/20 00:52:24;;;;;;;;;;;22.30;62.00;;;;;;5044905;28;20064;-77
2021/07/20 00:54:51;;;;;;;;;;;22.30;61.10;;;;;;5043396;28;19976;-77
2021/07/20 00:57:18;;;;;;;;;;;22.30;63.40;;;;;;5042885;28;20015;-77
2021/07/20 00:59:45;;;;;;;;;;;22.30;60.90;;;;;;5044530;28;19964;-77
2021/07/20 01:02:13;;;;;;;;;;;22.20;61.50;;;;;;5046158;28;19960;-77
2021/07/20 01:04:40;;;;;;;;;;;22.20;62.40;;;;;;5047635;28;20291;-77
2021/07/20 01:07:08;;;;;;;;;;;22.20;62.50;;;;;;5044435;28;20492;-77
2021/07/20 01:09:35;;;;;;;;;;;22.10;62.60;;;;;;5042185;28;19935;-77
2021/07/20 01:12:02;;;;;;;;;;;22.20;64.00;;;;;;5041978;28;20445;-77
2021/07/20 01:14:29;;;;;;;;;;;22.20;62.10;;;;;;5040754;28;19967;-76
2021/07/20 01:16:56;;;;;;;;;;;22.10;62.10;;;;;;5038901;28;20023;-76
2021/07/20 01:19:24;;;;;;;;;;;22.10;62.80;;;;;;5041160;28;20196;-77
2021/07/20 01:21:52;;;;;;;;;;;22.10;61.70;;;;;;5042106;28;19937;-77
2021/07/20 01:24:19;;;;;;;;;;;22.20;64.50;;;;;;5040402;28;19929;-77
2021/07/20 01:26:46;;;;;;;;;;;22.10;62.80;;;;;;5039725;28;19925;-77
2021/07/20 01:29:13;;;;;;;;;;;22.00;62.10;;;;;;5040157;28;20008;-77
2021/07/20 01:31:41;;;;;;;;;;;22.00;63.50;;;;;;5038658;28;19984;-77
2021/07/20 01:34:09;;;;;;;;;;;22.00;62.50;;;;;;5039893;28;20310;-77
2021/07/20 01:36:36;;;;;;;;;;;22.00;62.90;;;;;;5039618;28;20023;-77
2021/07/20 01:39:04;;;;;;;;;;;22.00;62.70;;;;;;5041966;28;19971;-77
2021/07/20 01:41:31;;;;;;;;;;;21.90;61.80;;;;;;5043487;28;19964;-75
2021/07/20 01:44:02;;;;;;;;;;;22.10;63.40;;;;;;5044549;28;19968;-77
2021/07/20 01:46:30;;;;;;;;;;;22.10;64.40;;;;;;5041702;28;19964;-77
2021/07/20 01:48:58;;;;;;;;;;;21.90;62.90;;;;;;5038544;28;20075;-77
2021/07/20 01:51:26;;;;;;;;;;;21.80;64.30;;;;;;5043310;28;19975;-76
2021/07/20 01:53:53;;;;;;;;;;;21.70;63.30;;;;;;5042529;28;19928;-77
2021/07/20 01:56:20;;;;;;;;;;;21.60;63.40;;;;;;5039385;28;19978;-77
2021/07/20 01:58:47;;;;;;;;;;;21.70;65.30;;;;;;5040234;28;19925;-77
2021/07/20 02:01:19;;;;;;;;;;;21.70;63.70;;;;;;5040913;28;19964;-77
2021/07/20 02:09:04;;;;;;;;;;;21.70;63.90;;;;;;5041147;28;19925;-76
2021/07/20 02:11:34;;;;;;;;;;;21.60;63.70;;;;;;5038432;28;20427;-76
2021/07/20 02:14:03;;;;;;;;;;;21.60;63.90;;;;;;5043342;28;20461;-76
2021/07/20 02:16:35;;;;;;;;;;;21.60;63.80;;;;;;5043365;28;19970;-76
2021/07/20 02:19:22;;;;;;;;;;;21.60;64.70;;;;;;5045106;28;20371;-77
2021/07/20 02:21:52;;;;;;;;;;;21.60;65.80;;;;;;5043305;28;19976;-77
2021/07/20 02:24:20;;;;;;;;;;;21.60;63.80;;;;;;5045111;28;19976;-77
2021/07/20 02:26:48;;;;;;;;;;;21.50;64.10;;;;;;5045363;28;19943;-77
2021/07/20 02:29:15;;;;;;;;;;;21.60;65.00;;;;;;5041779;28;19924;-77
2021/07/20 02:31:43;;;;;;;;;;;21.50;64.30;;;;;;5044351;28;19978;-77
2021/07/20 02:34:11;;;;;;;;;;;21.60;64.80;;;;;;5047227;28;19952;-77
2021/07/20 02:36:39;;;;;;;;;;;21.50;64.10;;;;;;5043546;28;20060;-77
2021/07/20 02:39:06;;;;;;;;;;;21.50;65.60;;;;;;5044937;28;19970;-77
2021/07/20 02:41:34;;;;;;;;;;;21.40;64.70;;;;;;5042908;28;19960;-77
2021/07/20 02:44:01;;;;;;;;;;;21.50;64.80;;;;;;5041927;28;20016;-77
2021/07/20 02:46:28;;;;;;;;;;;21.60;66.60;;;;;;5042515;28;19937;-77
2021/07/20 02:48:55;;;;;;;;;;;21.40;67.00;;;;;;5044650;28;20365;-77
2021/07/20 02:51:23;;;;;;;;;;;21.40;66.00;;;;;;5044733;28;20011;-77
2021/07/20 02:53:56;;;;;;;;;;;21.40;64.80;;;;;;5044534;28;20019;-77
2021/07/20 02:56:23;;;;;;;;;;;21.20;65.80;;;;;;5042798;28;19975;-78
2021/07/20 02:58:51;;;;;;;;;;;21.40;65.30;;;;;;5043408;28;20012;-78
2021/07/20 03:01:18;;;;;;;;;;;21.30;66.10;;;;;;5040520;28;19969;-78
2021/07/20 03:03:45;;;;;;;;;;;21.20;65.90;;;;;;5044587;28;19936;-79
2021/07/20 03:06:12;;;;;;;;;;;21.20;66.00;;;;;;5042234;28;20059;-78
2021/07/20 03:08:41;;;;;;;;;;;21.20;66.00;;;;;;5038206;28;20224;-78
2021/07/20 03:11:10;;;;;;;;;;;21.10;66.20;;;;;;5042968;28;19932;-76
2021/07/20 03:13:38;;;;;;;;;;;21.00;66.30;;;;;;5044264;28;20616;-77
2021/07/20 03:16:08;;;;;;;;;;;21.00;67.00;;;;;;5043256;28;19925;-77
2021/07/20 03:18:36;;;;;;;;;;;21.00;68.10;;;;;;5041953;28;20016;-75
2021/07/20 03:21:03;;;;;;;;;;;21.00;66.60;;;;;;5040753;28;20023;-77
2021/07/20 03:23:30;;;;;;;;;;;20.90;67.40;;;;;;5042954;28;19990;-77
2021/07/20 03:25:58;;;;;;;;;;;20.90;68.10;;;;;;5042288;28;20020;-77
2021/07/20 03:28:25;;;;;;;;;;;20.90;67.20;;;;;;5040192;28;20391;-78
2021/07/20 03:30:52;;;;;;;;;;;20.80;68.00;;;;;;5041214;28;19987;-78
2021/07/20 03:33:21;;;;;;;;;;;21.00;67.70;;;;;;5044720;28;19952;-77
2021/07/20 03:35:49;;;;;;;;;;;21.00;68.40;;;;;;5041057;28;19968;-78
2021/07/20 03:38:20;;;;;;;;;;;21.00;67.50;;;;;;5041973;28;20413;-76
2021/07/20 03:40:48;;;;;;;;;;;20.80;68.60;;;;;;5039080;28;19971;-75
2021/07/20 03:43:17;;;;;;;;;;;21.00;67.80;;;;;;5044407;28;19955;-75
2021/07/20 03:45:44;;;;;;;;;;;20.90;67.80;;;;;;5040505;28;20052;-75
2021/07/20 03:48:12;;;;;;;;;;;20.80;67.70;;;;;;5043755;28;20016;-74
2021/07/20 03:50:40;;;;;;;;;;;20.90;67.80;;;;;;5043508;28;20027;-74
2021/07/20 03:53:08;;;;;;;;;;;20.80;67.60;;;;;;5039681;28;20003;-76
2021/07/20 03:55:36;;;;;;;;;;;20.90;69.10;;;;;;5042996;28;19976;-76
2021/07/20 03:58:04;;;;;;;;;;;21.00;67.00;;;;;;5042806;28;19990;-75
2021/07/20 04:00:31;;;;;;;;;;;20.90;67.90;;;;;;5042499;28;20126;-74
2021/07/20 04:05:46;;;;;;;;;;;20.90;68.40;;;;;;5042269;28;20331;-76
2021/07/20 04:08:14;;;;;;;;;;;20.80;68.80;;;;;;5041470;28;19929;-77
2021/07/20 04:10:41;;;;;;;;;;;20.80;68.30;;;;;;5042122;28;19964;-77
2021/07/20 04:13:10;;;;;;;;;;;20.80;68.00;;;;;;5044287;28;19978;-75
2021/07/20 04:15:40;;;;;;;;;;;20.90;70.90;;;;;;5039033;28;19964;-76
2021/07/20 04:18:07;;;;;;;;;;;20.90;68.80;;;;;;5044709;28;20031;-75
2021/07/20 04:20:35;;;;;;;;;;;20.80;69.30;;;;;;5040728;28;20137;-74
2021/07/20 04:23:01;;;;;;;;;;;20.70;68.40;;;;;;5044562;28;20014;-75
2021/07/20 04:25:29;;;;;;;;;;;20.90;68.50;;;;;;5043656;28;20028;-75
2021/07/20 04:27:56;;;;;;;;;;;20.80;69.00;;;;;;5041335;28;19960;-75
2021/07/20 04:30:23;;;;;;;;;;;20.80;68.50;;;;;;5040988;28;19933;-77
2021/07/20 04:32:51;;;;;;;;;;;20.70;69.40;;;;;;5044586;28;20374;-77
2021/07/20 04:35:19;;;;;;;;;;;20.80;68.90;;;;;;5040041;28;20380;-76
2021/07/20 04:37:47;;;;;;;;;;;20.80;69.20;;;;;;5042697;28;20015;-76
2021/07/20 04:40:14;;;;;;;;;;;20.80;70.50;;;;;;5042540;28;19925;-75
2021/07/20 04:42:41;;;;;;;;;;;20.80;69.20;;;;;;5042485;28;19939;-75
2021/07/20 04:45:09;;;;;;;;;;;20.80;69.20;;;;;;5044642;28;20078;-75
2021/07/20 04:47:36;;;;;;;;;;;20.80;69.80;;;;;;5046430;28;20380;-76
2021/07/20 04:50:04;;;;;;;;;;;20.80;68.70;;;;;;5043162;28;20387;-77
2021/07/20 04:52:32;;;;;;;;;;;20.70;68.80;;;;;;5046940;28;20012;-77
2021/07/20 04:54:59;;;;;;;;;;;20.70;69.20;;;;;;5045533;28;19975;-76
2021/07/20 04:57:26;;;;;;;;;;;20.60;70.00;;;;;;5043480;28;20011;-77
2021/07/20 04:59:54;;;;;;;;;;;20.70;69.80;;;;;;5043887;28;20016;-77
2021/07/20 05:02:21;;;;;;;;;;;20.90;69.40;;;;;;5044202;28;19978;-76
2021/07/20 05:04:49;;;;;;;;;;;20.90;69.60;;;;;;5046001;28;19933;-78
2021/07/20 05:07:17;;;;;;;;;;;20.90;68.90;;;;;;5043815;28;19929;-78
2021/07/20 05:09:44;;;;;;;;;;;20.90;70.80;;;;;;5041716;28;19933;-77
2021/07/20 05:12:11;;;;;;;;;;;20.80;68.40;;;;;;5062574;28;19929;-77
2021/07/20 05:14:38;;;;;;;;;;;21.00;68.50;;;;;;5042672;28;19952;-77
2021/07/20 05:17:05;;;;;;;;;;;20.80;68.90;;;;;;5045401;28;19929;-78
2021/07/20 05:19:33;;;;;;;;;;;20.90;68.60;;;;;;5043361;28;19957;-77
2021/07/20 05:22:00;;;;;;;;;;;20.90;68.70;;;;;;5047926;28;19925;-78
2021/07/20 05:24:27;;;;;;;;;;;21.10;68.50;;;;;;5046261;28;20553;-78
2021/07/20 05:26:55;;;;;;;;;;;21.10;69.10;;;;;;5046360;28;20358;-78
2021/07/20 05:29:23;;;;;;;;;;;21.30;69.00;;;;;;5048167;28;20454;-79
2021/07/20 05:31:50;;;;;;;;;;;21.20;67.70;;;;;;5044639;28;20229;-79
2021/07/20 05:34:17;;;;;;;;;;;21.20;67.80;;;;;;5040124;28;20383;-79
2021/07/20 05:36:44;;;;;;;;;;;21.20;68.40;;;;;;5046274;28;19978;-79
2021/07/20 05:39:11;;;;;;;;;;;21.10;66.90;;;;;;5038834;28;21645;-78
2021/07/20 05:41:41;;;;;;;;;;;21.10;68.20;;;;;;5042836;28;19932;-78
2021/07/20 05:44:15;;;;;;;;;;;21.10;67.40;;;;;;5044784;28;20440;-78
2021/07/20 05:47:00;;;;;;;;;;;21.10;68.00;;;;;;5039127;28;20022;-79
2021/07/20 05:49:36;;;;;;;;;;;21.10;67.80;;;;;;5044186;28;20015;-77
2021/07/20 05:52:04;;;;;;;;;;;20.90;67.80;;;;;;5046062;28;19957;-78
2021/07/20 05:54:32;;;;;;;;;;;21.00;67.40;;;;;;5043057;28;20332;-79
2021/07/20 05:57:00;;;;;;;;;;;21.10;68.50;;;;;;5038785;28;20024;-78
2021/07/20 05:59:29;;;;;;;;;;;21.10;67.00;;;;;;5043076;28;19924;-79
2021/07/20 06:01:56;;;;;;;;;;;21.20;67.00;;;;;;5046253;28;19968;-78
2021/07/20 06:04:24;;;;;;;;;;;21.10;67.30;;;;;;5044019;28;20355;-78
2021/07/20 06:06:51;;;;;;;;;;;21.10;67.00;;;;;;5047975;28;20385;-78
2021/07/20 06:09:18;;;;;;;;;;;21.10;67.00;;;;;;5042405;28;19973;-78
2021/07/20 06:11:46;;;;;;;;;;;21.10;67.30;;;;;;5042858;28;19972;-77
2021/07/20 06:14:15;;;;;;;;;;;21.20;67.60;;;;;;5066497;28;20449;-78
2021/07/20 06:16:43;;;;;;;;;;;21.10;66.70;;;;;;5038623;28;19995;-78
2021/07/20 06:19:10;;;;;;;;;;;21.20;67.20;;;;;;5045133;28;19925;-77
2021/07/20 06:21:40;;;;;;;;;;;21.30;67.20;;;;;;5044827;28;19975;-77
2021/07/20 06:24:07;;;;;;;;;;;21.40;67.40;;;;;;5044180;28;20020;-78
2021/07/20 06:26:35;;;;;;;;;;;21.40;67.30;;;;;;5044731;28;20342;-77
2021/07/20 06:29:03;;;;;;;;;;;21.40;67.10;;;;;;5045209;28;20024;-79
2021/07/20 06:31:30;;;;;;;;;;;21.30;66.90;;;;;;5043340;28;20391;-77
2021/07/20 06:33:57;;;;;;;;;;;21.40;67.10;;;;;;5044125;28;20704;-77
2021/07/20 06:36:24;;;;;;;;;;;21.40;67.00;;;;;;5044565;28;19971;-76
2021/07/20 06:38:52;;;;;;;;;;;21.30;66.40;;;;;;5041606;28;19929;-76
2021/07/20 06:41:19;;;;;;;;;;;21.40;67.30;;;;;;5040529;28;20328;-76
2021/07/20 06:43:46;;;;;;;;;;;21.30;66.60;;;;;;5044099;28;19933;-76
2021/07/20 06:46:14;;;;;;;;;;;21.60;67.70;;;;;;5044168;28;20530;-76
2021/07/20 06:48:43;;;;;;;;;;;21.70;66.60;;;;;;5044723;28;20087;-76
2021/07/20 06:51:10;;;;;;;;;;;21.60;66.50;;;;;;5043184;28;22035;-76
2021/07/20 06:53:37;;;;;;;;;;;21.60;65.10;;;;;;5038903;28;20120;-75
2021/07/20 06:56:05;;;;;;;;;;;21.50;65.60;;;;;;5041076;28;20003;-75
2021/07/20 06:58:33;;;;;;;;;;;21.60;65.50;;;;;;5039710;28;19969;-75
2021/07/20 07:01:01;;;;;;;;;;;21.60;66.00;;;;;;5042932;28;19931;-75
2021/07/20 07:03:37;;;;;;;;;;;21.70;65.60;;;;;;5042839;28;19932;-76
2021/07/20 07:06:04;;;;;;;;;;;21.70;65.40;;;;;;5039441;28;19932;-75
2021/07/20 07:08:31;;;;;;;;;;;21.80;65.70;;;;;;5038434;28;19925;-71
2021/07/20 07:10:59;;;;;;;;;;;21.70;65.80;;;;;;5043158;28;19968;-79
2021/07/20 07:13:26;;;;;;;;;;;21.60;66.30;;;;;;5046739;28;19964;-77
2021/07/20 07:15:53;;;;;;;;;;;21.60;65.90;;;;;;5050025;28;20012;-80
2021/07/20 07:18:21;;;;;;;;;;;21.70;66.00;;;;;;5042968;28;20237;-80
2021/07/20 07:20:50;;;;;;;;;;;21.70;67.00;;;;;;5046561;28;20007;-77
2021/07/20 07:23:17;;;;;;;;;;;21.60;66.80;;;;;;5048098;28;20027;-79
2021/07/20 07:25:48;;;;;;;;;;;21.70;66.50;;;;;;5061970;28;19967;-81
2021/07/20 07:28:16;;;;;;;;;;;21.80;65.90;;;;;;5045145;28;20067;-80
2021/07/20 07:30:43;;;;;;;;;;;21.80;66.90;;;;;;5045528;28;19968;-79
2021/07/20 07:33:10;;;;;;;;;;;21.90;66.30;;;;;;5056656;28;20021;-78
2021/07/20 07:35:36;;;;;;;;;;;21.80;66.00;;;;;;5063314;28;19974;-80
2021/07/20 07:38:04;;;;;;;;;;;21.90;65.50;;;;;;5046259;28;19948;-79
2021/07/20 07:40:31;;;;;;;;;;;21.80;66.90;;;;;;5044141;28;20307;-81
2021/07/20 07:42:59;;;;;;;;;;;22.00;67.40;;;;;;5047336;28;19971;-79
2021/07/20 07:45:27;;;;;;;;;;;22.00;66.30;;;;;;5044299;28;19977;-82
2021/07/20 07:47:54;;;;;;;;;;;22.10;65.50;;;;;;5042604;28;19963;-79
2021/07/20 07:50:21;;;;;;;;;;;22.00;65.50;;;;;;5047602;28;20380;-80
2021/07/20 07:52:48;;;;;;;;;;;22.00;66.20;;;;;;5041840;28;19929;-80
2021/07/20 07:55:21;;;;;;;;;;;22.10;65.40;;;;;;5037157;28;20430;-80
2021/07/20 07:57:48;;;;;;;;;;;22.10;65.50;;;;;;5046509;28;19936;-83
2021/07/20 08:00:15;;;;;;;;;;;22.00;65.00;;;;;;5042729;28;19925;-80
2021/07/20 08:02:50;;;;;;;;;;;22.00;66.00;;;;;;5026373;28;19971;-82
2021/07/20 08:05:22;;;;;;;;;;;22.10;66.30;;;;;;5032703;28;19937;-86
2021/07/20 08:07:49;;;;;;;;;;;22.10;67.10;;;;;;5036054;28;19978;-83
2021/07/20 08:10:17;;;;;;;;;;;22.10;66.20;;;;;;5032015;28;20019;-83
2021/07/20 08:12:45;;;;;;;;;;;22.10;67.30;;;;;;5032814;28;19971;-84
2021/07/20 08:15:15;;;;;;;;;;;22.00;66.30;;;;;;5056564;28;19964;-83
2021/07/20 08:17:43;;;;;;;;;;;22.10;66.90;;;;;;5038908;28;19974;-82
2021/07/20 08:20:12;;;;;;;;;;;22.10;68.20;;;;;;5039685;28;20391;-84
2021/07/20 08:22:39;;;;;;;;;;;22.20;67.60;;;;;;5039417;28;19952;-86
2021/07/20 08:25:15;;;;;;;;;;;22.20;68.50;;;;;;5037503;28;20314;-82
2021/07/20 08:27:52;;;;;;;;;;;22.20;67.60;;;;;;5038039;28;19932;-82
2021/07/20 08:30:20;;;;;;;;;;;22.30;68.10;;;;;;5037859;28;20004;-81
2021/07/20 08:32:53;;;;;;;;;;;22.20;67.60;;;;;;5054049;28;19933;-83
2021/07/20 08:35:23;;;;;;;;;;;22.20;66.60;;;;;;5035589;28;19964;-83
2021/07/20 08:37:55;;;;;;;;;;;22.30;66.50;;;;;;5038504;28;19983;-82
2021/07/20 08:40:25;;;;;;;;;;;22.30;67.80;;;;;;5037439;28;19944;-83
2021/07/20 08:43:21;;;;;;;;;;;22.30;67.50;;;;;;5038683;28;20760;-82
2021/07/20 08:46:06;;;;;;;;;;;22.30;66.30;;;;;;5020778;28;20028;-83
2021/07/20 08:48:41;;;;;;;;;;;22.40;66.00;;;;;;5038714;28;19935;-83
2021/07/20 08:51:12;;;;;;;;;;;22.40;65.00;;;;;;5037530;28;20011;-82
2021/07/20 08:53:56;;;;;;;;;;;22.50;66.90;;;;;;5038664;28;19932;-83
2021/07/20 08:56:25;;;;;;;;;;;22.40;64.30;;;;;;5039018;28;19956;-83
2021/07/20 08:59:01;;;;;;;;;;;22.30;65.40;;;;;;5037182;28;19976;-81
2021/07/20 09:01:35;;;;;;;;;;;22.30;64.60;;;;;;5039908;28;19976;-86
2021/07/20 09:04:07;;;;;;;;;;;22.50;67.20;;;;;;5038162;28;20035;-83
2021/07/20 09:06:41;;;;;;;;;;;22.50;66.10;;;;;;5037026;28;20675;-89
2021/07/20 09:09:18;;;;;;;;;;;22.50;64.80;;;;;;5037195;28;20124;-84
2021/07/20 09:11:53;;;;;;;;;;;22.50;63.00;;;;;;5042273;28;20032;-83
2021/07/20 09:14:29;;;;;;;;;;;22.40;63.00;;;;;;5037551;28;19975;-84
2021/07/20 09:17:14;;;;;;;;;;;22.50;64.90;;;;;;5039417;28;19936;-87
2021/07/20 09:19:41;;;;;;;;;;;22.50;64.30;;;;;;5037205;28;19979;-84
2021/07/20 09:22:14;;;;;;;;;;;22.50;63.60;;;;;;5058839;28;20028;-83
2021/07/20 09:24:44;;;;;;;;;;;22.60;62.40;;;;;;5036378;28;20460;-83
2021/07/20 09:27:36;;;;;;;;;;;22.50;61.60;;;;;;5036452;28;21462;-82
2021/07/20 09:30:14;;;;;;;;;;;22.60;62.80;;;;;;5033427;28;19964;-81
2021/07/20 09:32:53;;;;;;;;;;;22.70;65.20;;;;;;5058479;28;19984;-82
2021/07/20 09:35:26;;;;;;;;;;;22.70;61.70;;;;;;5037839;28;20042;-81
2021/07/20 09:37:53;;;;;;;;;;;22.70;61.40;;;;;;5036056;28;19932;-80
2021/07/20 09:40:38;;;;;;;;;;;22.70;62.20;;;;;;5034747;28;19968;-83
2021/07/20 09:43:05;;;;;;;;;;;22.70;63.10;;;;;;5035490;28;20034;-80
2021/07/20 09:45:35;;;;;;;;;;;22.70;58.80;;;;;;5038002;28;20399;-81
2021/07/20 09:48:02;;;;;;;;;;;22.60;59.70;;;;;;5035656;28;19964;-81
2021/07/20 09:50:35;;;;;;;;;;;22.60;59.60;;;;;;5034045;28;19937;-82
2021/07/20 09:53:19;;;;;;;;;;;22.70;62.90;;;;;;5034751;28;19937;-80
2021/07/20 09:56:06;;;;;;;;;;;22.70;60.20;;;;;;5036879;28;20070;-80
2021/07/20 09:58:43;;;;;;;;;;;22.70;59.60;;;;;;5034861;28;20289;-80
2021/07/20 10:01:17;;;;;;;;;;;22.70;62.80;;;;;;5035204;28;19944;-80
2021/07/20 10:03:56;;;;;;;;;;;22.80;61.00;;;;;;5049988;28;19960;-80
2021/07/20 10:06:32;;;;;;;;;;;22.80;62.60;;;;;;5035491;28;20374;-81
2021/07/20 10:09:09;;;;;;;;;;;22.90;63.50;;;;;;5034141;28;19933;-80
2021/07/20 10:11:45;;;;;;;;;;;22.90;63.40;;;;;;5032975;28;19936;-78
2021/07/20 10:14:22;;;;;;;;;;;22.90;62.10;;;;;;5035786;28;20343;-80
2021/07/20 10:16:57;;;;;;;;;;;22.90;61.60;;;;;;5035062;28;20457;-80
2021/07/20 10:19:45;;;;;;;;;;;22.90;61.50;;;;;;5032686;28;19929;-79
2021/07/20 10:22:13;;;;;;;;;;;23.00;62.10;;;;;;5034451;28;20034;-79
2021/07/20 10:24:48;;;;;;;;;;;23.00;62.90;;;;;;5035534;28;19951;-79
2021/07/20 10:27:20;;;;;;;;;;;23.00;63.30;;;;;;5033768;28;19960;-81
2021/07/20 10:30:04;;;;;;;;;;;23.10;62.60;;;;;;5032313;28;19963;-79
2021/07/20 10:32:50;;;;;;;;;;;23.00;59.30;;;;;;5035693;28;19944;-81
2021/07/20 10:35:29;;;;;;;;;;;23.10;62.50;;;;;;5035085;28;19960;-82
2021/07/20 10:37:57;;;;;;;;;;;23.20;62.90;;;;;;5036552;28;19972;-83
2021/07/20 10:40:25;;;;;;;;;;;23.10;61.80;;;;;;5036884;28;19933;-83
2021/07/20 10:42:56;;;;;;;;;;;23.10;60.90;;;;;;5035716;28;19935;-81
2021/07/20 10:45:24;;;;;;;;;;;23.10;61.20;;;;;;5033556;28;19932;-82
2021/07/20 10:48:00;;;;;;;;;;;23.10;62.90;;;;;;5036038;28;20020;-83
2021/07/20 10:50:37;;;;;;;;;;;23.10;61.30;;;;;;5035320;28;19955;-80
2021/07/20 10:53:23;;;;;;;;;;;23.10;63.10;;;;;;5034915;28;19933;-87
2021/07/20 10:56:17;;;;;;;;;;;23.20;63.30;;;;;;5034436;28;19987;-82
2021/07/20 10:59:02;;;;;;;;;;;23.20;64.50;;;;;;5035436;28;19965;-85
2021/07/20 11:01:34;;;;;;;;;;;23.20;60.50;;;;;;5035340;28;19929;-82
2021/07/20 11:04:05;;;;;;;;;;;23.10;58.50;;;;;;5062438;28;19933;-84
2021/07/20 11:06:33;;;;;;;;;;;23.20;61.50;;;;;;5035642;28;19952;-84
2021/07/20 11:09:01;;;;;;;;;;;23.20;60.90;;;;;;5037044;28;20076;-84
2021/07/20 11:11:32;;;;;;;;;;;23.10;62.40;;;;;;5037888;28;20042;-84
2021/07/20 11:14:00;;;;;;;;;;;23.20;60.30;;;;;;5039314;28;20055;-83
2021/07/20 11:16:30;;;;;;;;;;;23.20;59.50;;;;;;5039354;28;19975;-86
2021/07/20 11:18:59;;;;;;;;;;;23.30;61.50;;;;;;5038258;28;19934;-84
2021/07/20 11:21:27;;;;;;;;;;;23.30;61.40;;;;;;5036808;28;19925;-83
2021/07/20 11:23:54;;;;;;;;;;;23.30;62.00;;;;;;5039272;28;19975;-84
2021/07/20 11:26:21;;;;;;;;;;;23.30;58.50;;;;;;5037524;28;19958;-85
2021/07/20 11:28:49;;;;;;;;;;;23.40;59.00;;;;;;5037835;28;19933;-84
2021/07/20 11:31:27;;;;;;;;;;;23.30;56.10;;;;;;5036752;28;19964;-83
2021/07/20 11:33:57;;;;;;;;;;;23.40;62.10;;;;;;5038898;28;19933;-85
2021/07/20 11:36:25;;;;;;;;;;;23.30;55.90;;;;;;5037409;28;19975;-86
2021/07/20 11:38:56;;;;;;;;;;;23.30;58.10;;;;;;5039484;28;20007;-81
2021/07/20 11:41:32;;;;;;;;;;;23.30;61.40;;;;;;5036092;28;19925;-80
2021/07/20 11:44:11;;;;;;;;;;;23.40;62.00;;;;;;5034769;28;21299;-80
2021/07/20 11:46:56;;;;;;;;;;;23.40;61.10;;;;;;5038001;28;19928;-80
2021/07/20 11:49:27;;;;;;;;;;;23.30;59.60;;;;;;5036731;28;22212;-82
2021/07/20 11:51:59;;;;;;;;;;;23.40;59.50;;;;;;5034320;28;20022;-81
2021/07/20 11:54:41;;;;;;;;;;;23.40;58.50;;;;;;5036549;28;20726;-80
2021/07/20 11:57:20;;;;;;;;;;;23.40;58.60;;;;;;5035448;28;19987;-80
2021/07/20 12:00:05;;;;;;;;;;;23.50;57.00;;;;;;5037534;28;19969;-81
2021/07/20 12:02:35;;;;;;;;;;;23.50;56.30;;;;;;5037178;28;19999;-80
2021/07/20 12:05:21;;;;;;;;;;;23.50;59.90;;;;;;5033075;28;20004;-80
2021/07/20 12:08:01;;;;;;;;;;;23.50;62.40;;;;;;5037171;28;19991;-80
2021/07/20 12:10:32;;;;;;;;;;;23.50;62.60;;;;;;5034819;28;19937;-85
2021/07/20 12:13:05;;;;;;;;;;;23.50;61.40;;;;;;5036659;28;20361;-82
2021/07/20 12:15:32;;;;;;;;;;;23.60;59.40;;;;;;5034872;28;19982;-81
2021/07/20 12:18:00;;;;;;;;;;;23.70;59.30;;;;;;5038033;28;20032;-81
2021/07/20 12:20:27;;;;;;;;;;;23.60;57.30;;;;;;5034747;28;20036;-81
2021/07/20 12:22:55;;;;;;;;;;;23.60;60.10;;;;;;5035993;28;19979;-82
2021/07/20 12:25:22;;;;;;;;;;;23.80;63.20;;;;;;5035439;28;19936;-81
2021/07/20 12:27:51;;;;;;;;;;;23.80;61.70;;;;;;5062941;28;19984;-81
2021/07/20 12:30:20;;;;;;;;;;;23.80;58.30;;;;;;5033555;28;19929;-79
2021/07/20 12:32:47;;;;;;;;;;;23.90;58.20;;;;;;5034677;28;19968;-79
2021/07/20 12:35:15;;;;;;;;;;;24.40;58.30;;;;;;5035231;28;20835;-79
2021/07/20 12:37:56;;;;;;;;;;;24.60;58.30;;;;;;5034443;28;20033;-80
2021/07/20 12:40:24;;;;;;;;;;;25.20;59.00;;;;;;5035273;28;20023;-82
2021/07/20 12:42:51;;;;;;;;;;;25.90;57.00;;;;;;5032480;28;20022;-83
2021/07/20 12:45:19;;;;;;;;;;;26.00;55.30;;;;;;5037194;28;19938;-82
2021/07/20 12:47:47;;;;;;;;;;;26.10;55.10;;;;;;5035204;28;19932;-83
2021/07/20 12:50:18;;;;;;;;;;;26.10;55.20;;;;;;5036712;28;20427;-84
2021/07/20 12:52:47;;;;;;;;;;;26.10;55.00;;;;;;5036703;28;20015;-82
2021/07/20 12:55:18;;;;;;;;;;;25.90;53.60;;;;;;5052919;28;19971;-85
2021/07/20 12:57:50;;;;;;;;;;;25.70;54.90;;;;;;5035194;28;19951;-83
2021/07/20 13:00:30;;;;;;;;;;;25.40;54.70;;;;;;5059726;28;20405;-82
2021/07/20 13:02:58;;;;;;;;;;;25.20;55.00;;;;;;5036890;28;19933;-82
2021/07/20 13:05:27;;;;;;;;;;;24.90;55.00;;;;;;5041386;28;20571;-81
2021/07/20 13:07:56;;;;;;;;;;;24.80;55.60;;;;;;5040203;28;19999;-82
2021/07/20 13:10:23;;;;;;;;;;;24.70;55.20;;;;;;5039975;28;19936;-83
2021/07/20 13:12:53;;;;;;;;;;;24.60;55.50;;;;;;5035665;28;19937;-82
2021/07/20 13:15:22;;;;;;;;;;;24.60;54.00;;;;;;5041000;28;20044;-82
2021/07/20 13:17:50;;;;;;;;;;;24.60;55.80;;;;;;5037959;28;19937;-82
2021/07/20 13:20:21;;;;;;;;;;;24.50;54.80;;;;;;5035756;28;19969;-81
2021/07/20 13:22:48;;;;;;;;;;;24.50;54.30;;;;;;5039076;28;20024;-83
2021/07/20 13:25:15;;;;;;;;;;;24.40;54.50;;;;;;5044393;28;19987;-84
2021/07/20 13:27:43;;;;;;;;;;;24.40;54.00;;;;;;5039136;28;20019;-80
2021/07/20 13:30:11;;;;;;;;;;;24.40;54.10;;;;;;5023924;28;19933;-79
2021/07/20 13:32:38;;;;;;;;;;;24.40;54.30;;;;;;5038200;28;19932;-82
2021/07/20 13:35:06;;;;;;;;;;;24.40;55.20;;;;;;5035945;28;19952;-83
2021/07/20 13:37:33;;;;;;;;;;;24.40;53.60;;;;;;5039046;28;20307;-81
2021/07/20 13:40:01;;;;;;;;;;;24.40;55.40;;;;;;5039714;28;21569;-81
2021/07/20 13:42:29;;;;;;;;;;;24.40;55.70;;;;;;5037715;28;19986;-81
2021/07/20 13:44:56;;;;;;;;;;;24.40;53.40;;;;;;5037294;28;19967;-80
2021/07/20 13:47:26;;;;;;;;;;;24.40;54.40;;;;;;5038858;28;19929;-82
2021/07/20 13:49:54;;;;;;;;;;;24.30;54.80;;;;;;5038920;28;19925;-85
2021/07/20 13:52:23;;;;;;;;;;;24.30;55.20;;;;;;5038607;28;20019;-81
2021/07/20 13:54:53;;;;;;;;;;;24.30;54.50;;;;;;5038567;28;19961;-81
2021/07/20 13:57:19;;;;;;;;;;;24.30;54.50;;;;;;5038034;28;20802;-81
2021/07/20 13:59:48;;;;;;;;;;;24.30;56.00;;;;;;5036604;28;20075;-81
2021/07/20 14:02:16;;;;;;;;;;;24.30;55.60;;;;;;5054650;28;19956;-81
2021/07/20 14:04:46;;;;;;;;;;;24.30;55.10;;;;;;5038907;28;20398;-81
2021/07/20 14:07:13;;;;;;;;;;;24.30;53.70;;;;;;5038444;28;19965;-80
2021/07/20 14:09:39;;;;;;;;;;;24.30;53.50;;;;;;5037043;28;19964;-80
2021/07/20 14:12:07;;;;;;;;;;;24.30;52.30;;;;;;5034162;28;20024;-81
2021/07/20 14:14:35;;;;;;;;;;;24.30;54.10;;;;;;5034801;28;19987;-80
2021/07/20 14:17:02;;;;;;;;;;;24.30;54.20;;;;;;5038755;28;19991;-79
2021/07/20 14:19:29;;;;;;;;;;;24.30;54.30;;;;;;5036159;28;19972;-81
2021/07/20 14:22:01;;;;;;;;;;;24.30;54.50;;;;;;5038909;28;19933;-81
2021/07/20 14:24:28;;;;;;;;;;;24.30;54.80;;;;;;5038167;28;19964;-83
2021/07/20 14:26:57;;;;;;;;;;;24.30;54.60;;;;;;5038267;28;19964;-83
2021/07/20 14:29:27;;;;;;;;;;;24.20;54.30;;;;;;5023341;28;20022;-83
2021/07/20 14:31:56;;;;;;;;;;;24.20;55.00;;;;;;5038364;28;20024;-85
2021/07/20 14:34:23;;;;;;;;;;;24.20;55.30;;;;;;5059755;28;19935;-84
2021/07/20 14:36:51;;;;;;;;;;;24.20;55.40;;;;;;5037238;28;19940;-83
2021/07/20 14:39:27;;;;;;;;;;;24.30;53.90;;;;;;5039441;28;19933;-84